createdAt,value
2023-01-30T00:01:14.705Z,7.20
2023-01-30T00:03:41.370Z,7.00
2023-01-30T00:06:07.992Z,6.82
2023-01-30T00:08:34.515Z,6.68
2023-01-30T00:11:06.300Z,6.22
2023-01-30T00:13:33.686Z,6.50
2023-01-30T00:16:00.480Z,6.63
2023-01-30T00:18:27.099Z,6.75
2023-01-30T00:21:00.939Z,6.90
2023-01-30T00:23:28.558Z,5.75
2023-01-30T00:25:55.415Z,6.57
2023-01-30T00:28:22.501Z,5.72
2023-01-30T00:30:53.094Z,6.28
2023-01-30T00:33:20.619Z,6.35
2023-01-30T00:35:49.071Z,6.10
2023-01-30T00:38:16.510Z,5.93
2023-01-30T00:40:43.994Z,5.28
2023-01-30T00:43:34.347Z,5.35
2023-01-30T00:46:21.408Z,5.18
2023-01-30T00:48:48.053Z,5.60
2023-01-30T00:51:14.796Z,5.15
2023-01-30T00:53:41.327Z,6.35
2023-01-30T00:56:07.967Z,5.38
2023-01-30T00:58:34.536Z,5.53
2023-01-30T01:01:01.139Z,5.53
2023-01-30T01:03:27.685Z,5.90
2023-01-30T01:05:54.192Z,5.93
2023-01-30T01:08:22.658Z,5.90
2023-01-30T01:10:49.489Z,5.28
2023-01-30T01:13:16.097Z,5.13
2023-01-30T01:15:42.638Z,5.57
2023-01-30T01:18:09.283Z,5.10
2023-01-30T01:20:35.782Z,4.78
2023-01-30T01:23:02.330Z,5.10
2023-01-30T01:25:28.990Z,4.93
2023-01-30T01:27:55.730Z,4.93
2023-01-30T01:30:22.563Z,5.03
2023-01-30T01:32:49.262Z,5.32
2023-01-30T01:35:16.100Z,5.38
2023-01-30T01:37:42.920Z,5.20
2023-01-30T01:40:36.561Z,4.30
2023-01-30T01:43:14.339Z,4.78
2023-01-30T01:45:41.080Z,4.60
2023-01-30T01:48:37.791Z,4.53
2023-01-30T01:51:14.817Z,4.38
2023-01-30T01:53:47.340Z,5.05
2023-01-30T01:56:16.736Z,4.90
2023-01-30T01:58:50.389Z,5.60
2023-01-30T02:04:04.058Z,4.78
2023-01-30T02:06:31.540Z,4.93
2023-01-30T02:09:03.248Z,4.53
2023-01-30T02:11:35.021Z,5.18
2023-01-30T02:14:02.941Z,4.88
2023-01-30T02:16:29.533Z,4.97
2023-01-30T02:18:56.233Z,5.18
2023-01-30T02:21:47.842Z,4.93
2023-01-30T02:24:20.444Z,4.65
2023-01-30T02:27:11.877Z,4.68
2023-01-30T02:29:53.836Z,4.70
2023-01-30T02:32:44.208Z,4.65
2023-01-30T02:35:25.810Z,4.45
2023-01-30T02:38:12.716Z,4.60
2023-01-30T02:40:54.388Z,5.13
2023-01-30T02:43:35.885Z,5.30
2023-01-30T02:46:33.180Z,4.32
2023-01-30T02:49:07.320Z,4.20
2023-01-30T02:51:38.966Z,4.65
2023-01-30T02:54:07.842Z,4.50
2023-01-30T02:56:55.148Z,4.80
2023-01-30T02:59:26.754Z,5.03
2023-01-30T03:02:08.467Z,5.25
2023-01-30T03:05:20.644Z,4.57
2023-01-30T03:08:15.113Z,4.20
2023-01-30T03:10:49.460Z,5.47
2023-01-30T03:13:20.409Z,5.10
2023-01-30T03:15:51.090Z,4.32
2023-01-30T03:18:19.197Z,4.15
2023-01-30T03:20:46.827Z,4.30
2023-01-30T03:23:14.279Z,4.55
2023-01-30T03:25:43.449Z,4.97
2023-01-30T03:28:11.537Z,4.18
2023-01-30T03:30:38.402Z,4.72
2023-01-30T03:33:05.062Z,4.53
2023-01-30T03:35:31.919Z,4.32
2023-01-30T03:37:59.082Z,4.45
2023-01-30T03:40:26.060Z,4.22
2023-01-30T03:42:52.632Z,4.22
2023-01-30T03:45:19.465Z,4.93
2023-01-30T03:47:46.206Z,4.35
2023-01-30T03:50:12.991Z,4.57
2023-01-30T03:52:39.588Z,4.00
2023-01-30T03:55:06.558Z,3.72
2023-01-30T03:57:33.202Z,4.43
2023-01-30T03:59:59.783Z,4.25
2023-01-30T04:02:26.340Z,4.55
2023-01-30T04:04:53.417Z,3.95
2023-01-30T04:07:20.099Z,4.57
2023-01-30T04:09:46.678Z,3.60
2023-01-30T04:12:13.934Z,3.58
2023-01-30T04:14:40.581Z,2.97
2023-01-30T04:17:07.162Z,3.65
2023-01-30T04:19:33.961Z,3.83
2023-01-30T04:22:00.534Z,3.28
2023-01-30T04:24:27.022Z,3.58
2023-01-30T04:26:53.617Z,3.60
2023-01-30T04:29:20.170Z,4.00
2023-01-30T04:31:46.698Z,3.47
2023-01-30T04:34:13.362Z,4.15
2023-01-30T04:36:39.969Z,3.35
2023-01-30T04:39:06.464Z,3.33
2023-01-30T04:41:33.104Z,3.85
2023-01-30T04:43:59.706Z,3.85
2023-01-30T04:46:26.250Z,3.97
2023-01-30T04:48:52.919Z,3.95
2023-01-30T04:51:19.568Z,3.65
2023-01-30T04:53:46.093Z,3.58
2023-01-30T04:56:12.636Z,3.65
2023-01-30T04:58:39.211Z,3.80
2023-01-30T05:01:15.648Z,3.58
2023-01-30T05:03:42.271Z,3.88
2023-01-30T05:06:08.769Z,3.28
2023-01-30T05:08:35.330Z,3.90
2023-01-30T05:11:01.953Z,3.47
2023-01-30T05:13:28.434Z,3.67
2023-01-30T05:15:55.002Z,3.60
2023-01-30T05:18:21.581Z,3.60
2023-01-30T05:20:48.128Z,3.97
2023-01-30T05:23:14.902Z,3.58
2023-01-30T05:25:41.646Z,4.15
2023-01-30T05:28:08.169Z,3.75
2023-01-30T05:30:34.821Z,3.85
2023-01-30T05:33:01.537Z,3.60
2023-01-30T05:35:28.097Z,3.72
2023-01-30T05:37:54.684Z,4.15
2023-01-30T05:40:21.296Z,3.60
2023-01-30T05:42:47.866Z,3.45
2023-01-30T05:45:14.553Z,3.70
2023-01-30T05:47:41.152Z,3.92
2023-01-30T05:50:08.231Z,3.92
2023-01-30T05:52:34.745Z,4.13
2023-01-30T05:55:01.606Z,3.80
2023-01-30T05:57:28.104Z,4.28
2023-01-30T05:59:54.633Z,4.03
2023-01-30T06:02:21.219Z,3.75
2023-01-30T06:04:47.726Z,4.40
2023-01-30T06:07:14.792Z,3.83
2023-01-30T06:09:41.356Z,3.67
2023-01-30T06:12:08.031Z,3.67
2023-01-30T06:14:34.594Z,3.97
2023-01-30T06:17:01.266Z,3.80
2023-01-30T06:19:27.780Z,4.15
2023-01-30T06:21:54.427Z,3.67
2023-01-30T06:24:20.970Z,3.92
2023-01-30T06:26:47.545Z,4.40
2023-01-30T06:29:14.210Z,4.57
2023-01-30T06:31:40.848Z,4.40
2023-01-30T06:34:07.406Z,4.03
2023-01-30T06:36:34.055Z,3.88
2023-01-30T06:39:00.654Z,4.18
2023-01-30T06:41:27.162Z,4.28
2023-01-30T06:43:53.933Z,3.72
2023-01-30T06:46:20.673Z,4.10
2023-01-30T06:48:47.626Z,3.80
2023-01-30T06:51:14.199Z,4.70
2023-01-30T06:53:40.720Z,4.28
2023-01-30T06:56:07.482Z,4.10
2023-01-30T06:58:34.057Z,4.22
2023-01-30T07:01:02.456Z,4.38
2023-01-30T07:03:29.101Z,4.40
2023-01-30T07:05:55.826Z,4.55
2023-01-30T07:08:24.217Z,4.43
2023-01-30T07:10:51.045Z,4.35
2023-01-30T07:13:17.707Z,4.50
2023-01-30T07:15:44.668Z,4.78
2023-01-30T07:18:11.323Z,4.13
2023-01-30T07:20:38.004Z,4.57
2023-01-30T07:23:04.637Z,4.90
2023-01-30T07:25:31.347Z,4.72
2023-01-30T07:28:01.180Z,4.47
2023-01-30T07:30:30.947Z,4.90
2023-01-30T07:32:59.381Z,4.90
2023-01-30T07:35:28.530Z,5.30
2023-01-30T07:37:55.358Z,5.70
2023-01-30T07:40:23.041Z,5.43
2023-01-30T07:43:03.264Z,5.07
2023-01-30T07:45:56.015Z,5.20
2023-01-30T07:48:22.763Z,5.90
2023-01-30T07:50:49.289Z,6.05
2023-01-30T07:53:18.480Z,5.45
2023-01-30T07:55:45.417Z,5.45
2023-01-30T07:58:16.216Z,6.32
2023-01-30T08:00:43.242Z,5.78
2023-01-30T08:03:17.271Z,6.10
2023-01-30T08:05:46.928Z,5.32
2023-01-30T08:08:13.769Z,4.95
2023-01-30T08:10:40.356Z,5.15
2023-01-30T08:13:06.879Z,5.53
2023-01-30T08:15:33.618Z,4.95
2023-01-30T08:18:00.937Z,5.38
2023-01-30T08:20:28.570Z,5.78
2023-01-30T08:22:55.613Z,5.85
2023-01-30T08:25:22.909Z,4.80
2023-01-30T08:27:49.828Z,5.07
2023-01-30T08:30:17.195Z,5.28
2023-01-30T08:32:44.378Z,5.40
2023-01-30T08:35:10.958Z,4.75
2023-01-30T08:37:39.768Z,5.22
2023-01-30T08:40:07.635Z,6.30
2023-01-30T08:42:34.124Z,4.78
2023-01-30T08:45:00.686Z,5.45
2023-01-30T08:47:27.363Z,5.55
2023-01-30T08:49:54.008Z,5.43
2023-01-30T08:52:20.728Z,5.90
2023-01-30T08:54:48.320Z,5.78
2023-01-30T08:57:15.695Z,5.47
2023-01-30T08:59:42.286Z,5.35
2023-01-30T09:02:14.134Z,4.68
2023-01-30T09:04:40.669Z,4.80
2023-01-30T09:07:07.229Z,5.00
2023-01-30T09:09:34.016Z,5.00
2023-01-30T09:12:00.520Z,5.18
2023-01-30T09:14:27.179Z,4.65
2023-01-30T09:16:55.736Z,5.38
2023-01-30T09:19:27.331Z,5.03
2023-01-30T09:24:26.556Z,5.60
2023-01-30T09:26:54.630Z,5.20
2023-01-30T09:29:21.216Z,5.78
2023-01-30T09:31:47.825Z,6.40
2023-01-30T09:34:14.429Z,6.15
2023-01-30T09:36:41.273Z,6.13
2023-01-30T09:39:08.399Z,5.13
2023-01-30T09:41:55.331Z,5.45
2023-01-30T09:44:32.894Z,5.70
2023-01-30T09:47:08.395Z,6.22
2023-01-30T09:49:53.215Z,5.20
2023-01-30T09:52:52.497Z,5.68
2023-01-30T09:55:24.082Z,5.60
2023-01-30T09:57:51.851Z,7.38
2023-01-30T10:00:30.534Z,6.47
2023-01-30T10:03:10.811Z,6.22
2023-01-30T10:05:54.984Z,7.13
2023-01-30T10:08:42.766Z,6.70
2023-01-30T10:11:45.534Z,6.63
2023-01-30T10:17:03.251Z,6.85
2023-01-30T10:19:36.908Z,6.20
2023-01-30T10:22:29.704Z,6.55
2023-01-30T10:25:13.121Z,6.97
2023-01-30T10:27:47.762Z,6.47
2023-01-30T10:30:17.034Z,6.82
2023-01-30T10:32:56.242Z,6.72
2023-01-30T10:35:27.441Z,6.97
2023-01-30T10:38:05.443Z,6.72
2023-01-30T10:40:47.025Z,7.35
2023-01-30T10:43:46.020Z,6.22
2023-01-30T10:46:15.533Z,7.30
2023-01-30T10:49:02.912Z,6.38
2023-01-30T10:51:32.568Z,6.15
2023-01-30T10:54:05.301Z,7.40
2023-01-30T10:56:45.255Z,6.45
2023-01-30T10:59:43.361Z,7.30
2023-01-30T11:02:15.964Z,6.53
2023-01-30T11:05:09.627Z,6.97
2023-01-30T11:07:36.242Z,6.88
2023-01-30T11:10:02.868Z,7.60
2023-01-30T11:12:29.449Z,7.38
2023-01-30T11:15:04.924Z,6.60
2023-01-30T11:17:37.037Z,6.90
2023-01-30T11:20:07.829Z,6.70
2023-01-30T11:22:36.645Z,6.05
2023-01-30T11:25:16.651Z,6.97
2023-01-30T11:27:47.217Z,6.50
2023-01-30T11:30:20.338Z,6.57
2023-01-30T11:32:49.635Z,6.78
2023-01-30T11:35:16.257Z,6.45
2023-01-30T11:37:45.083Z,7.20
2023-01-30T11:40:31.230Z,6.45
2023-01-30T11:43:06.606Z,6.40
2023-01-30T11:45:46.235Z,7.07
2023-01-30T11:48:33.798Z,6.60
2023-01-30T11:51:09.847Z,5.82
2023-01-30T11:53:45.108Z,6.70
2023-01-30T11:56:17.346Z,6.63
2023-01-30T11:58:48.188Z,6.50
2023-01-30T12:01:16.245Z,6.00
2023-01-30T12:03:49.636Z,6.75
2023-01-30T12:06:31.380Z,5.68
2023-01-30T12:08:58.611Z,6.28
2023-01-30T12:11:42.392Z,6.43
2023-01-30T12:16:51.451Z,5.78
2023-01-30T12:19:28.423Z,5.35
2023-01-30T12:22:11.304Z,5.85
2023-01-30T12:24:49.006Z,6.22
2023-01-30T12:30:47.479Z,6.97
2023-01-30T12:35:52.178Z,6.88
2023-01-30T12:38:38.507Z,6.60
2023-01-30T12:41:21.212Z,5.82
2023-01-30T12:43:59.301Z,5.95
2023-01-30T12:46:40.871Z,6.25
2023-01-30T12:49:16.629Z,6.15
2023-01-30T12:52:04.947Z,6.43
2023-01-30T12:55:07.866Z,5.82
2023-01-30T12:57:56.859Z,6.78
2023-01-30T13:00:47.905Z,6.35
2023-01-30T13:03:32.995Z,5.75
2023-01-30T13:06:31.995Z,6.65
2023-01-30T13:09:17.758Z,6.28
2023-01-30T13:11:56.387Z,6.80
2023-01-30T13:14:40.714Z,6.15
2023-01-30T13:17:31.960Z,7.10
2023-01-30T13:20:21.420Z,6.50
2023-01-30T13:23:02.795Z,6.30
2023-01-30T13:25:58.724Z,6.75
2023-01-30T13:28:38.171Z,7.00
2023-01-30T13:31:09.350Z,7.03
2023-01-30T13:33:40.032Z,6.65
2023-01-30T13:36:09.674Z,7.15
2023-01-30T13:38:42.039Z,6.65
2023-01-30T13:41:12.667Z,7.15
2023-01-30T13:43:44.503Z,6.95
2023-01-30T13:46:20.463Z,6.90
2023-01-30T13:49:01.351Z,5.80
2023-01-30T13:51:41.685Z,6.55
2023-01-30T13:54:26.043Z,6.70
2023-01-30T13:57:14.954Z,7.45
2023-01-30T14:00:16.972Z,7.35
2023-01-30T14:03:08.647Z,6.65
2023-01-30T14:06:02.958Z,6.60
2023-01-30T14:08:38.296Z,6.72
2023-01-30T14:11:05.144Z,8.10
2023-01-30T14:13:32.375Z,7.20
2023-01-30T14:16:04.563Z,7.38
2023-01-30T14:18:38.676Z,7.55
2023-01-30T14:21:25.553Z,7.45
2023-01-30T14:23:56.645Z,6.95
2023-01-30T14:26:47.893Z,7.32
2023-01-30T14:29:42.357Z,6.90
2023-01-30T14:32:14.717Z,7.35
2023-01-30T14:34:46.299Z,7.25
2023-01-30T14:37:41.551Z,8.00
2023-01-30T14:40:23.545Z,7.22
2023-01-30T14:43:11.857Z,7.55
2023-01-30T14:45:49.891Z,7.43
2023-01-30T14:48:41.691Z,7.50
2023-01-30T14:51:37.292Z,7.60
2023-01-30T14:54:14.004Z,7.05
2023-01-30T14:56:50.086Z,7.93
2023-01-30T14:59:16.599Z,6.53
2023-01-30T15:02:18.266Z,7.35
2023-01-30T15:05:29.871Z,6.43
2023-01-30T15:08:21.008Z,6.38
2023-01-30T15:10:57.364Z,6.32
2023-01-30T15:13:49.843Z,7.72
2023-01-30T15:16:25.351Z,6.72
2023-01-30T15:19:02.840Z,6.25
2023-01-30T15:21:52.629Z,6.07
2023-01-30T15:24:27.738Z,6.53
2023-01-30T15:27:19.034Z,7.32
2023-01-30T15:30:06.591Z,6.57
2023-01-30T15:32:34.032Z,6.47
2023-01-30T15:35:12.186Z,7.22
2023-01-30T15:37:47.143Z,6.10
2023-01-30T15:40:18.262Z,6.00
2023-01-30T15:43:20.341Z,6.90
2023-01-30T15:46:30.168Z,5.90
2023-01-30T15:49:18.294Z,5.47
2023-01-30T15:51:45.633Z,5.22
2023-01-30T15:54:18.345Z,5.00
2023-01-30T15:56:48.813Z,5.25
2023-01-30T15:59:34.920Z,5.70
2023-01-30T16:02:13.249Z,4.75
2023-01-30T16:04:39.830Z,5.32
2023-01-30T16:07:25.783Z,5.30
2023-01-30T16:10:07.193Z,4.85
2023-01-30T16:12:41.189Z,5.55
2023-01-30T16:15:19.684Z,4.72
2023-01-30T16:18:14.668Z,5.15
2023-01-30T16:21:02.712Z,5.43
2023-01-30T16:23:57.332Z,6.05
2023-01-30T16:26:24.405Z,5.93
2023-01-30T16:28:58.569Z,6.00
2023-01-30T16:31:27.501Z,5.57
2023-01-30T16:33:54.160Z,6.45
2023-01-30T16:36:20.726Z,6.05
2023-01-30T16:38:49.139Z,6.32
2023-01-30T16:41:35.863Z,5.80
2023-01-30T16:44:23.164Z,4.90
2023-01-30T16:46:56.129Z,4.72
2023-01-30T16:49:30.354Z,5.50
2023-01-30T16:52:12.512Z,5.78
2023-01-30T16:54:41.306Z,5.22
2023-01-30T16:57:16.705Z,5.78
2023-01-30T16:59:47.490Z,4.75
2023-01-30T17:02:35.277Z,5.70
2023-01-30T17:05:26.309Z,4.65
2023-01-30T17:07:55.827Z,5.28
2023-01-30T17:10:28.516Z,5.30
2023-01-30T17:12:55.822Z,5.22
2023-01-30T17:15:22.410Z,5.40
2023-01-30T17:17:49.000Z,5.07
2023-01-30T17:20:18.888Z,5.00
2023-01-30T17:22:48.097Z,5.13
2023-01-30T17:25:20.693Z,5.03
2023-01-30T17:27:48.161Z,4.45
2023-01-30T17:30:16.007Z,4.82
2023-01-30T17:32:42.561Z,4.72
2023-01-30T17:35:11.291Z,4.65
2023-01-30T17:37:38.371Z,5.22
2023-01-30T17:40:16.553Z,5.15
2023-01-30T17:42:43.305Z,4.90
2023-01-30T17:45:10.621Z,5.63
2023-01-30T17:47:37.205Z,5.15
2023-01-30T17:50:04.750Z,5.32
2023-01-30T17:52:31.366Z,5.32
2023-01-30T17:54:58.050Z,5.65
2023-01-30T17:57:25.634Z,5.63
2023-01-30T17:59:52.281Z,5.50
2023-01-30T18:02:18.828Z,6.07
2023-01-30T18:04:45.439Z,6.15
2023-01-30T18:07:14.400Z,6.15
2023-01-30T18:09:40.920Z,6.32
2023-01-30T18:12:07.681Z,6.15
2023-01-30T18:14:34.244Z,6.07
2023-01-30T18:17:01.440Z,6.28
2023-01-30T18:19:29.208Z,7.13
2023-01-30T18:21:58.255Z,7.32
2023-01-30T18:24:24.846Z,6.80
2023-01-30T18:26:51.749Z,6.85
2023-01-30T18:29:18.349Z,6.85
2023-01-30T18:31:45.014Z,6.93
2023-01-30T18:34:11.878Z,6.55
2023-01-30T18:36:38.838Z,6.75
2023-01-30T18:39:06.992Z,6.53
2023-01-30T18:41:35.332Z,6.97
2023-01-30T18:44:04.820Z,6.22
2023-01-30T18:46:32.550Z,6.53
2023-01-30T18:48:59.845Z,7.03
2023-01-30T18:51:29.384Z,6.50
2023-01-30T18:53:56.459Z,6.93
2023-01-30T18:56:26.591Z,7.30
2023-01-30T18:58:56.510Z,6.75
2023-01-30T19:01:28.418Z,7.35
2023-01-30T19:03:56.632Z,6.78
2023-01-30T19:06:23.944Z,6.22
2023-01-30T19:08:50.549Z,7.20
2023-01-30T19:11:39.911Z,7.70
2023-01-30T19:14:08.062Z,7.70
2023-01-30T19:16:36.377Z,7.45
2023-01-30T19:19:03.351Z,7.43
2023-01-30T19:21:30.080Z,7.25
2023-01-30T19:23:56.764Z,7.95
2023-01-30T19:26:24.819Z,9.20
2023-01-30T19:28:52.377Z,9.07
2023-01-30T19:31:21.594Z,10.05
2023-01-30T19:33:54.439Z,10.35
2023-01-30T19:36:23.329Z,10.60
2023-01-30T19:38:49.978Z,9.82
2023-01-30T19:41:18.918Z,9.52
2023-01-30T19:43:45.605Z,9.90
2023-01-30T19:46:12.416Z,9.90
2023-01-30T19:48:40.031Z,10.20
2023-01-30T19:51:13.608Z,10.27
2023-01-30T19:53:45.011Z,12.48
2023-01-30T19:58:40.225Z,10.43
2023-01-30T20:01:08.805Z,10.07
2023-01-30T20:03:36.828Z,9.90
2023-01-30T20:06:26.798Z,10.85
2023-01-30T20:09:02.307Z,10.55
2023-01-30T20:11:29.853Z,11.15
2023-01-30T20:13:56.557Z,11.02
2023-01-30T20:16:25.534Z,10.80
2023-01-30T20:19:01.228Z,10.57
2023-01-30T20:21:29.337Z,10.13
2023-01-30T20:23:56.888Z,10.05
2023-01-30T20:26:26.660Z,10.82
2023-01-30T20:28:57.119Z,10.82
2023-01-30T20:31:25.844Z,10.43
2023-01-30T20:33:53.211Z,11.27
2023-01-30T20:36:20.447Z,10.48
2023-01-30T20:38:48.828Z,9.18
2023-01-30T20:41:20.408Z,9.27
2023-01-30T20:43:49.417Z,11.15
2023-01-30T20:46:20.260Z,9.45
2023-01-30T20:48:47.587Z,9.60
2023-01-30T20:51:19.632Z,10.00
2023-01-30T20:53:49.207Z,10.35
2023-01-30T20:56:16.057Z,10.50
2023-01-30T20:58:42.632Z,9.68
2023-01-30T21:01:21.516Z,9.82
2023-01-30T21:03:50.562Z,10.10
2023-01-30T21:06:37.228Z,8.68
2023-01-30T21:09:07.550Z,9.88
2023-01-30T21:11:34.561Z,9.63
2023-01-30T21:14:01.061Z,9.68
2023-01-30T21:16:30.413Z,9.45
2023-01-30T21:19:03.376Z,9.75
2023-01-30T21:21:32.051Z,8.23
2023-01-30T21:24:01.872Z,8.80
2023-01-30T21:26:31.335Z,9.32
2023-01-30T21:29:00.641Z,8.15
2023-01-30T21:31:29.038Z,8.80
2023-01-30T21:33:56.612Z,8.95
2023-01-30T21:36:23.619Z,8.50
2023-01-30T21:39:08.797Z,7.57
2023-01-30T21:42:04.474Z,8.02
2023-01-30T21:44:39.175Z,8.20
2023-01-30T21:47:06.961Z,7.28
2023-01-30T21:49:34.479Z,8.40
2023-01-30T21:52:01.040Z,7.30
2023-01-30T21:54:27.818Z,7.97
2023-01-30T21:56:54.508Z,7.47
2023-01-30T21:59:21.230Z,7.63
2023-01-30T22:01:48.727Z,7.47
2023-01-30T22:04:15.499Z,7.65
2023-01-30T22:06:42.611Z,7.78
2023-01-30T22:09:11.960Z,8.45
2023-01-30T22:11:38.825Z,7.95
2023-01-30T22:14:05.602Z,8.25
2023-01-30T22:16:33.730Z,7.50
2023-01-30T22:19:03.067Z,7.63
2023-01-30T22:21:33.938Z,7.57
2023-01-30T22:24:01.989Z,7.25
2023-01-30T22:26:28.721Z,7.60
2023-01-30T22:28:57.246Z,7.03
2023-01-30T22:31:25.401Z,6.45
2023-01-30T22:33:54.832Z,7.63
2023-01-30T22:36:25.005Z,7.18
2023-01-30T22:38:51.743Z,6.50
2023-01-30T22:41:23.517Z,6.82
2023-01-30T22:43:58.701Z,7.25
2023-01-30T22:46:27.896Z,6.70
2023-01-30T22:48:55.180Z,6.82
2023-01-30T22:51:24.236Z,6.78
2023-01-30T22:53:54.083Z,7.03
2023-01-30T22:56:22.931Z,7.45
2023-01-30T22:58:50.109Z,7.00
2023-01-30T23:01:20.179Z,7.20
2023-01-30T23:03:48.889Z,7.47
2023-01-30T23:06:17.075Z,6.95
2023-01-30T23:08:45.805Z,6.85
2023-01-30T23:11:28.389Z,7.22
2023-01-30T23:13:59.212Z,7.03
2023-01-30T23:16:27.905Z,7.93
2023-01-30T23:18:58.797Z,7.45
2023-01-30T23:21:29.994Z,7.45
2023-01-30T23:24:01.332Z,7.88
2023-01-30T23:28:57.026Z,7.43
2023-01-30T23:31:25.831Z,7.40
2023-01-30T23:33:57.339Z,8.00
2023-01-30T23:38:52.461Z,6.80
2023-01-30T23:41:24.399Z,6.93
2023-01-30T23:43:51.685Z,7.00
2023-01-30T23:46:30.141Z,7.43
2023-01-30T23:49:02.012Z,6.15
2023-01-30T23:51:32.598Z,6.47
2023-01-30T23:53:59.785Z,6.63
2023-01-30T23:56:28.652Z,5.97
2023-01-30T23:58:55.507Z,6.28
